createdAt,value
2023-03-17T00:00:25.679Z,44.98
2023-03-17T00:01:10.504Z,44.98
2023-03-17T00:01:56.188Z,44.98
2023-03-17T00:02:40.998Z,44.98
2023-03-17T00:03:26.050Z,44.98
2023-03-17T00:04:10.929Z,44.98
2023-03-17T00:04:56.612Z,44.98
2023-03-17T00:05:41.139Z,44.98
2023-03-17T00:06:26.484Z,44.98
2023-03-17T00:07:11.119Z,44.98
2023-03-17T00:07:56.280Z,44.98
2023-03-17T00:08:41.184Z,44.98
2023-03-17T00:09:26.398Z,44.98
2023-03-17T00:10:11.718Z,44.98
2023-03-17T00:10:56.973Z,44.98
2023-03-17T00:11:41.774Z,44.98
2023-03-17T00:12:26.618Z,44.98
2023-03-17T00:13:11.849Z,44.98
2023-03-17T00:13:56.421Z,44.98
2023-03-17T00:14:42.036Z,44.98
2023-03-17T00:15:26.767Z,44.98
2023-03-17T00:16:12.105Z,43.98
2023-03-17T00:16:56.455Z,43.98
2023-03-17T00:17:41.702Z,43.98
2023-03-17T00:18:26.714Z,43.98
2023-03-17T00:19:11.941Z,43.98
2023-03-17T00:19:56.918Z,43.98
2023-03-17T00:20:42.270Z,43.98
2023-03-17T00:21:27.008Z,43.98
2023-03-17T00:22:12.689Z,43.98
2023-03-17T00:22:57.553Z,43.98
2023-03-17T00:23:42.669Z,43.98
2023-03-17T00:24:27.012Z,43.98
2023-03-17T00:25:12.166Z,46.99
2023-03-17T00:25:56.856Z,44.98
2023-03-17T00:26:42.211Z,45.99
2023-03-17T00:27:26.944Z,45.99
2023-03-17T00:28:11.777Z,45.99
2023-03-17T00:28:57.450Z,46.99
2023-03-17T00:29:42.606Z,46.99
2023-03-17T00:30:27.182Z,46.99
2023-03-17T00:31:12.633Z,45.99
2023-03-17T00:31:57.118Z,44.99
2023-03-17T00:32:42.919Z,44.99
2023-03-17T00:33:27.825Z,46.99
2023-03-17T00:34:13.002Z,46.99
2023-03-17T00:34:57.588Z,42.99
2023-03-17T00:35:42.968Z,43.98
2023-03-17T00:36:28.231Z,43.98
2023-03-17T00:37:13.303Z,43.98
2023-03-17T00:37:58.535Z,43.98
2023-03-17T00:38:43.019Z,43.98
2023-03-17T00:39:28.250Z,43.98
2023-03-17T00:40:14.488Z,43.98
2023-03-17T00:40:58.160Z,47.99
2023-03-17T00:41:42.699Z,42.99
2023-03-17T00:42:28.068Z,45.99
2023-03-17T00:43:13.159Z,44.99
2023-03-17T00:43:58.169Z,45.99
2023-03-17T00:44:43.429Z,47.99
2023-03-17T00:45:28.530Z,47.99
2023-03-17T00:46:13.577Z,46.99
2023-03-17T00:46:58.054Z,44.99
2023-03-17T00:47:43.238Z,45.99
2023-03-17T00:48:28.155Z,43.99
2023-03-17T00:49:13.754Z,43.99
2023-03-17T00:49:59.246Z,43.99
2023-03-17T00:50:43.575Z,43.99
2023-03-17T00:51:28.896Z,43.99
2023-03-17T00:52:14.723Z,43.99
2023-03-17T00:52:59.084Z,43.99
2023-03-17T00:53:44.199Z,43.99
2023-03-17T00:54:29.580Z,43.99
2023-03-17T00:55:14.779Z,43.99
2023-03-17T00:56:00.051Z,43.99
2023-03-17T00:56:44.146Z,43.99
2023-03-17T00:57:30.300Z,43.99
2023-03-17T00:58:14.464Z,43.99
2023-03-17T00:59:00.438Z,43.99
2023-03-17T00:59:44.799Z,43.99
2023-03-17T01:00:30.200Z,43.99
2023-03-17T01:01:15.139Z,43.99
2023-03-17T01:02:00.291Z,43.99
2023-03-17T01:02:44.505Z,43.99
2023-03-17T01:03:30.305Z,43.99
2023-03-17T01:04:14.995Z,43.99
2023-03-17T01:05:06.000Z,43.99
2023-03-17T01:05:45.609Z,43.99
2023-03-17T01:06:30.196Z,43.99
2023-03-17T01:07:15.440Z,43.99
2023-03-17T01:08:00.589Z,43.99
2023-03-17T01:08:45.502Z,43.99
2023-03-17T01:09:30.421Z,43.99
2023-03-17T01:10:15.259Z,43.99
2023-03-17T01:11:00.415Z,43.99
2023-03-17T01:11:45.480Z,43.99
2023-03-17T01:12:30.163Z,43.99
2023-03-17T01:13:15.466Z,43.99
2023-03-17T01:14:00.161Z,43.99
2023-03-17T01:14:45.646Z,43.99
2023-03-17T01:15:31.060Z,43.99
2023-03-17T01:16:15.281Z,43.99
2023-03-17T01:17:00.442Z,43.99
2023-03-17T01:17:45.503Z,43.99
2023-03-17T01:18:31.376Z,43.99
2023-03-17T01:19:16.134Z,43.99
2023-03-17T01:20:01.009Z,43.99
2023-03-17T01:20:45.732Z,43.99
2023-03-17T01:21:30.788Z,43.99
2023-03-17T01:22:16.286Z,43.99
2023-03-17T01:23:01.002Z,43.99
2023-03-17T01:23:46.361Z,43.99
2023-03-17T01:24:31.567Z,43.99
2023-03-17T01:25:16.572Z,43.99
2023-03-17T01:26:02.350Z,43.99
2023-03-17T01:26:47.125Z,43.99
2023-03-17T01:27:31.656Z,43.99
2023-03-17T01:28:16.389Z,43.99
2023-03-17T01:29:01.577Z,43.99
2023-03-17T01:29:46.917Z,43.99
2023-03-17T01:30:32.751Z,43.99
2023-03-17T01:31:17.047Z,43.99
2023-03-17T01:32:01.919Z,43.99
2023-03-17T01:32:46.783Z,43.99
2023-03-17T01:33:32.047Z,43.99
2023-03-17T01:34:16.709Z,43.99
2023-03-17T01:35:01.945Z,43.99
2023-03-17T01:35:46.923Z,43.99
2023-03-17T01:36:32.427Z,43.99
2023-03-17T01:37:17.375Z,43.99
2023-03-17T01:38:02.499Z,43.99
2023-03-17T01:38:47.078Z,43.99
2023-03-17T01:39:32.649Z,43.99
2023-03-17T01:40:17.686Z,43.99
2023-03-17T01:41:02.767Z,43.99
2023-03-17T01:41:48.048Z,43.99
2023-03-17T01:42:32.520Z,43.99
2023-03-17T01:43:18.094Z,43.99
2023-03-17T01:44:02.837Z,43.99
2023-03-17T01:44:48.212Z,43.99
2023-03-17T01:45:33.140Z,43.99
2023-03-17T01:46:18.446Z,43.99
2023-03-17T01:47:02.810Z,43.99
2023-03-17T01:47:48.356Z,43.99
2023-03-17T01:48:33.633Z,43.99
2023-03-17T01:49:18.185Z,43.99
2023-03-17T01:50:03.757Z,43.99
2023-03-17T01:50:48.601Z,43.99
2023-03-17T01:51:33.656Z,43.99
2023-03-17T01:52:18.199Z,43.99
2023-03-17T01:53:04.144Z,43.99
2023-03-17T01:53:48.216Z,43.99
2023-03-17T01:54:33.567Z,43.99
2023-03-17T01:55:18.841Z,43.99
2023-03-17T01:56:03.504Z,43.99
2023-03-17T01:56:48.789Z,43.99
2023-03-17T01:57:34.147Z,43.99
2023-03-17T01:58:19.232Z,43.99
2023-03-17T01:59:03.706Z,43.99
2023-03-17T01:59:48.809Z,43.99
2023-03-17T02:00:33.817Z,43.99
2023-03-17T02:01:18.688Z,45.99
2023-03-17T02:02:03.844Z,45.99
2023-03-17T02:02:49.494Z,45.99
2023-03-17T02:03:35.178Z,45.99
2023-03-17T02:04:19.485Z,45.99
2023-03-17T02:05:04.212Z,45.99
2023-03-17T02:05:49.212Z,45.99
2023-03-17T02:06:34.928Z,45.99
2023-03-17T02:07:19.861Z,45.99
2023-03-17T02:08:05.496Z,45.99
2023-03-17T02:08:49.597Z,45.99
2023-03-17T02:09:34.600Z,45.99
2023-03-17T02:10:20.628Z,45.99
2023-03-17T02:11:04.619Z,45.99
2023-03-17T02:11:50.091Z,45.99
2023-03-17T02:12:35.080Z,45.99
2023-03-17T02:13:19.964Z,45.99
2023-03-17T02:14:04.980Z,45.99
2023-03-17T02:14:49.665Z,45.99
2023-03-17T02:15:35.363Z,45.99
2023-03-17T02:16:20.213Z,45.99
2023-03-17T02:17:04.874Z,45.99
2023-03-17T02:17:49.923Z,45.99
2023-03-17T02:18:35.422Z,45.99
2023-03-17T02:19:20.105Z,45.99
2023-03-17T02:20:05.336Z,45.99
2023-03-17T02:20:51.250Z,45.99
2023-03-17T02:21:35.157Z,45.99
2023-03-17T02:22:20.552Z,45.99
2023-03-17T02:23:05.541Z,45.99
2023-03-17T02:23:51.344Z,45.99
2023-03-17T02:24:35.629Z,45.99
2023-03-17T02:25:21.062Z,45.99
2023-03-17T02:26:05.835Z,45.99
2023-03-17T02:26:50.950Z,45.99
2023-03-17T02:27:36.555Z,45.99
2023-03-17T02:28:20.902Z,45.99
2023-03-17T02:29:06.617Z,45.99
2023-03-17T02:29:51.039Z,45.99
2023-03-17T02:30:36.438Z,45.99
2023-03-17T02:31:21.281Z,45.99
2023-03-17T02:32:06.209Z,45.99
2023-03-17T02:32:51.199Z,45.99
2023-03-17T02:33:36.486Z,45.99
2023-03-17T02:34:21.274Z,45.99
2023-03-17T02:35:06.263Z,45.99
2023-03-17T02:35:51.560Z,45.99
2023-03-17T02:36:37.023Z,45.99
2023-03-17T02:37:21.498Z,45.99
2023-03-17T02:38:07.881Z,45.99
2023-03-17T02:38:51.629Z,45.99
2023-03-17T02:39:36.894Z,45.99
2023-03-17T02:40:22.725Z,45.99
2023-03-17T02:41:06.881Z,45.99
2023-03-17T02:41:52.039Z,45.99
2023-03-17T02:42:37.156Z,45.99
2023-03-17T02:43:22.734Z,45.99
2023-03-17T02:44:07.235Z,45.99
2023-03-17T02:44:52.047Z,45.99
2023-03-17T02:45:37.215Z,45.99
2023-03-17T02:46:21.962Z,45.99
2023-03-17T02:47:07.353Z,45.99
2023-03-17T02:47:52.502Z,45.99
2023-03-17T02:48:37.652Z,45.99
2023-03-17T02:49:22.521Z,45.99
2023-03-17T02:50:08.055Z,45.99
2023-03-17T02:50:52.777Z,45.99
2023-03-17T02:51:38.180Z,45.99
2023-03-17T02:52:24.842Z,45.99
2023-03-17T02:53:07.778Z,45.99
2023-03-17T02:53:53.063Z,45.99
2023-03-17T02:54:37.985Z,45.99
2023-03-17T02:55:24.412Z,45.99
2023-03-17T02:56:08.177Z,45.99
2023-03-17T02:56:53.050Z,45.99
2023-03-17T02:57:38.116Z,45.99
2023-03-17T02:58:23.169Z,45.99
2023-03-17T02:59:08.156Z,45.99
2023-03-17T02:59:53.811Z,45.99
2023-03-17T03:00:38.758Z,45.99
2023-03-17T03:01:23.948Z,45.99
2023-03-17T03:02:08.953Z,45.99
2023-03-17T03:02:53.573Z,45.99
2023-03-17T03:03:39.147Z,45.99
2023-03-17T03:04:23.824Z,45.99
2023-03-17T03:05:08.901Z,45.99
2023-03-17T03:05:53.848Z,45.99
2023-03-17T03:06:38.844Z,45.99
2023-03-17T03:07:24.190Z,45.99
2023-03-17T03:08:09.604Z,45.99
2023-03-17T03:08:54.029Z,45.99
2023-03-17T03:09:39.048Z,45.99
2023-03-17T03:10:25.340Z,45.99
2023-03-17T03:11:09.315Z,45.99
2023-03-17T03:11:54.482Z,45.99
2023-03-17T03:12:39.142Z,45.99
2023-03-17T03:13:24.916Z,45.99
2023-03-17T03:14:09.233Z,45.99
2023-03-17T03:14:54.424Z,45.99
2023-03-17T03:15:39.736Z,45.99
2023-03-17T03:16:24.422Z,45.99
2023-03-17T03:17:10.060Z,45.99
2023-03-17T03:17:54.654Z,45.99
2023-03-17T03:18:39.702Z,45.99
2023-03-17T03:19:25.481Z,45.99
2023-03-17T03:20:09.748Z,45.99
2023-03-17T03:20:55.703Z,45.99
2023-03-17T03:21:40.126Z,45.99
2023-03-17T03:22:25.116Z,45.99
2023-03-17T03:23:10.420Z,45.99
2023-03-17T03:23:55.515Z,45.99
2023-03-17T03:24:40.501Z,45.99
2023-03-17T03:25:25.667Z,45.99
2023-03-17T03:26:10.769Z,45.99
2023-03-17T03:26:55.214Z,45.99
2023-03-17T03:27:40.854Z,45.99
2023-03-17T03:28:25.625Z,45.99
2023-03-17T03:29:10.134Z,45.99
2023-03-17T03:29:55.234Z,45.99
2023-03-17T03:30:40.940Z,45.99
2023-03-17T03:31:25.383Z,45.99
2023-03-17T03:32:11.143Z,45.99
2023-03-17T03:32:55.967Z,45.99
2023-03-17T03:33:40.750Z,45.99
2023-03-17T03:34:25.877Z,45.99
2023-03-17T03:35:10.730Z,45.99
2023-03-17T03:35:56.531Z,45.99
2023-03-17T03:36:41.218Z,45.99
2023-03-17T03:37:26.086Z,45.99
2023-03-17T03:38:11.263Z,45.99
2023-03-17T03:38:55.922Z,45.99
2023-03-17T03:39:41.200Z,45.99
2023-03-17T03:40:27.123Z,45.99
2023-03-17T03:41:11.404Z,45.99
2023-03-17T03:41:56.647Z,45.99
2023-03-17T03:42:41.364Z,45.99
2023-03-17T03:43:26.141Z,45.99
2023-03-17T03:44:11.775Z,45.99
2023-03-17T03:44:56.363Z,45.99
2023-03-17T03:45:42.098Z,45.99
2023-03-17T03:46:26.769Z,45.99
2023-03-17T03:47:11.726Z,45.99
2023-03-17T03:47:56.992Z,45.99
2023-03-17T03:48:41.856Z,45.99
2023-03-17T03:49:27.306Z,45.99
2023-03-17T03:50:12.386Z,45.99
2023-03-17T03:50:56.739Z,45.99
2023-03-17T03:51:41.970Z,45.99
2023-03-17T03:52:26.608Z,45.99
2023-03-17T03:54:56.894Z,48.99
2023-03-17T03:55:41.064Z,44.98
2023-03-17T03:56:25.533Z,44.99
2023-03-17T03:57:10.881Z,45.99
2023-03-17T03:57:56.376Z,45.99
2023-03-17T03:58:41.068Z,46.99
2023-03-17T03:59:26.276Z,45.99
2023-03-17T04:00:12.544Z,43.99
2023-03-17T04:00:56.589Z,43.99
2023-03-17T04:01:41.428Z,44.99
2023-03-17T04:02:26.430Z,44.98
2023-03-17T04:03:11.667Z,39.99
2023-03-17T04:03:56.946Z,39.99
2023-03-17T04:04:41.702Z,39.99
2023-03-17T04:05:27.113Z,39.99
2023-03-17T04:06:12.322Z,39.99
2023-03-17T04:06:58.565Z,39.99
2023-03-17T04:07:44.027Z,39.99
2023-03-17T04:08:28.800Z,39.99
2023-03-17T04:09:12.403Z,39.99
2023-03-17T04:09:57.158Z,39.99
2023-03-17T04:10:42.317Z,39.99
2023-03-17T04:11:27.527Z,39.99
2023-03-17T04:12:12.425Z,39.99
2023-03-17T04:12:57.504Z,39.99
2023-03-17T04:13:42.631Z,39.99
2023-03-17T04:14:27.342Z,39.99
2023-03-17T04:15:12.445Z,39.99
2023-03-17T04:15:57.743Z,39.99
2023-03-17T04:16:43.549Z,39.99
2023-03-17T04:17:28.134Z,39.99
2023-03-17T04:18:12.579Z,44.98
2023-03-17T04:18:58.575Z,44.98
2023-03-17T04:19:43.700Z,44.98
2023-03-17T04:20:27.944Z,44.98
2023-03-17T04:21:13.047Z,44.98
2023-03-17T04:21:58.052Z,44.98
2023-03-17T04:22:43.172Z,44.98
2023-03-17T04:23:28.373Z,44.98
2023-03-17T04:24:13.186Z,44.98
2023-03-17T04:24:58.279Z,44.98
2023-03-17T04:25:43.336Z,44.98
2023-03-17T04:26:28.593Z,44.98
2023-03-17T04:27:13.391Z,44.98
2023-03-17T04:27:58.511Z,44.98
2023-03-17T04:28:43.605Z,44.98
2023-03-17T04:29:28.827Z,44.98
2023-03-17T04:30:13.685Z,44.98
2023-03-17T04:30:58.634Z,44.98
2023-03-17T04:31:44.163Z,44.98
2023-03-17T04:32:28.676Z,44.98
2023-03-17T04:33:13.910Z,44.98
2023-03-17T04:33:58.952Z,44.98
2023-03-17T04:34:44.044Z,44.98
2023-03-17T04:35:28.870Z,44.98
2023-03-17T04:36:14.272Z,44.98
2023-03-17T04:36:59.459Z,44.98
2023-03-17T04:37:44.521Z,44.98
2023-03-17T04:38:29.551Z,44.98
2023-03-17T04:39:14.728Z,44.98
2023-03-17T04:39:59.518Z,44.98
2023-03-17T04:40:44.365Z,44.98
2023-03-17T04:41:29.845Z,44.98
2023-03-17T04:42:14.517Z,44.98
2023-03-17T04:42:59.928Z,44.98
2023-03-17T04:43:44.974Z,44.98
2023-03-17T04:44:29.346Z,44.98
2023-03-17T04:45:14.509Z,44.98
2023-03-17T04:45:59.742Z,44.98
2023-03-17T04:46:45.197Z,44.98
2023-03-17T04:47:29.635Z,44.98
2023-03-17T04:48:14.683Z,44.98
2023-03-17T04:48:59.887Z,44.98
2023-03-17T04:49:44.844Z,44.98
2023-03-17T04:50:30.099Z,44.98
2023-03-17T04:51:15.149Z,40.99
2023-03-17T04:52:00.035Z,40.99
2023-03-17T04:52:45.203Z,40.99
2023-03-17T04:53:30.110Z,40.99
2023-03-17T04:54:15.393Z,40.99
2023-03-17T04:55:00.444Z,40.99
2023-03-17T04:55:45.284Z,40.99
2023-03-17T04:56:31.728Z,40.99
2023-03-17T04:57:15.373Z,40.99
2023-03-17T04:58:00.362Z,40.99
2023-03-17T04:58:45.714Z,40.99
2023-03-17T04:59:30.895Z,40.99
2023-03-17T05:00:15.841Z,40.99
2023-03-17T05:01:00.663Z,40.99
2023-03-17T05:01:45.529Z,40.99
2023-03-17T05:02:30.738Z,40.99
2023-03-17T05:03:26.316Z,40.99
2023-03-17T05:04:00.697Z,40.99
2023-03-17T05:04:45.858Z,40.99
2023-03-17T05:05:31.018Z,40.99
2023-03-17T05:06:16.380Z,40.99
2023-03-17T05:07:00.839Z,40.99
2023-03-17T05:07:46.338Z,40.99
2023-03-17T05:08:31.361Z,40.99
2023-03-17T05:09:16.412Z,40.99
2023-03-17T05:10:01.609Z,40.99
2023-03-17T05:10:46.989Z,40.99
2023-03-17T05:11:31.367Z,40.99
2023-03-17T05:12:16.325Z,40.99
2023-03-17T05:13:01.492Z,40.99
2023-03-17T05:13:46.532Z,40.99
2023-03-17T05:14:31.915Z,40.99
2023-03-17T05:15:16.337Z,40.99
2023-03-17T05:16:01.370Z,40.99
2023-03-17T05:16:46.471Z,40.99
2023-03-17T05:17:31.407Z,40.99
2023-03-17T05:18:16.671Z,40.99
2023-03-17T05:19:01.862Z,40.99
2023-03-17T05:19:46.610Z,40.99
2023-03-17T05:20:32.152Z,40.99
2023-03-17T05:21:17.051Z,40.99
2023-03-17T05:22:02.311Z,40.99
2023-03-17T05:22:47.198Z,40.99
2023-03-17T05:23:31.773Z,40.99
2023-03-17T05:24:16.989Z,40.99
2023-03-17T05:25:01.827Z,45.99
2023-03-17T05:25:46.723Z,47.99
2023-03-17T05:26:31.642Z,42.99
2023-03-17T05:27:17.147Z,43.99
2023-03-17T05:28:01.939Z,42.99
2023-03-17T05:28:47.045Z,40.99
2023-03-17T05:29:32.356Z,40.99
2023-03-17T05:30:17.652Z,40.99
2023-03-17T05:31:02.660Z,40.99
2023-03-17T05:31:47.493Z,40.99
2023-03-17T05:32:32.795Z,40.99
2023-03-17T05:33:19.522Z,40.99
2023-03-17T05:34:02.767Z,40.99
2023-03-17T05:34:48.024Z,40.99
2023-03-17T05:35:33.173Z,40.99
2023-03-17T05:36:18.099Z,40.99
2023-03-17T05:37:02.985Z,40.99
2023-03-17T05:37:48.135Z,40.99
2023-03-17T05:38:33.027Z,40.99
2023-03-17T05:39:18.294Z,40.99
2023-03-17T05:40:03.394Z,40.99
2023-03-17T05:40:48.039Z,40.99
2023-03-17T05:41:33.350Z,40.99
2023-03-17T05:42:18.494Z,40.99
2023-03-17T05:43:03.434Z,40.99
2023-03-17T05:43:48.219Z,40.99
2023-03-17T05:44:33.578Z,40.99
2023-03-17T05:45:18.497Z,40.99
2023-03-17T05:46:04.028Z,40.99
2023-03-17T05:46:48.734Z,40.99
2023-03-17T05:47:33.461Z,40.99
2023-03-17T05:48:18.487Z,40.99
2023-03-17T05:49:03.803Z,40.99
2023-03-17T05:49:48.680Z,40.99
2023-03-17T05:50:34.432Z,40.99
2023-03-17T05:51:19.017Z,40.99
2023-03-17T05:52:04.632Z,40.99
2023-03-17T05:52:48.962Z,40.99
2023-03-17T05:53:33.912Z,40.99
2023-03-17T05:54:19.078Z,40.99
2023-03-17T05:55:04.084Z,40.99
2023-03-17T05:55:49.736Z,40.99
2023-03-17T05:56:34.295Z,40.99
2023-03-17T05:57:19.092Z,40.99
2023-03-17T05:58:04.336Z,40.99
2023-03-17T05:58:49.217Z,40.99
2023-03-17T05:59:34.162Z,40.99
2023-03-17T06:00:19.452Z,40.99
2023-03-17T06:01:04.438Z,40.99
2023-03-17T06:01:49.357Z,40.99
2023-03-17T06:02:34.480Z,40.99
2023-03-17T06:03:19.544Z,40.99
2023-03-17T06:04:04.636Z,40.99
2023-03-17T06:04:49.704Z,40.99
2023-03-17T06:05:34.739Z,40.99
2023-03-17T06:06:19.617Z,40.99
2023-03-17T06:07:04.448Z,42.99
2023-03-17T06:07:55.635Z,42.99
2023-03-17T06:08:34.768Z,42.99
2023-03-17T06:09:19.739Z,42.99
2023-03-17T06:10:04.728Z,43.99
2023-03-17T06:10:49.866Z,44.99
2023-03-17T06:11:34.724Z,43.99
2023-03-17T06:12:19.971Z,41.99
2023-03-17T06:13:04.991Z,41.99
2023-03-17T06:13:50.647Z,41.99
2023-03-17T06:14:35.386Z,41.99
2023-03-17T06:15:19.952Z,41.99
2023-03-17T06:16:05.011Z,41.99
2023-03-17T06:16:50.464Z,41.99
2023-03-17T06:17:37.324Z,41.99
2023-03-17T06:18:20.651Z,41.99
2023-03-17T06:19:05.332Z,41.99
2023-03-17T06:19:50.703Z,41.99
2023-03-17T06:20:35.277Z,41.99
2023-03-17T06:21:20.606Z,41.99
2023-03-17T06:22:05.755Z,41.99
2023-03-17T06:23:03.276Z,41.99
2023-03-17T06:23:35.987Z,41.99
2023-03-17T06:24:21.201Z,41.99
2023-03-17T06:25:06.028Z,41.99
2023-03-17T06:25:50.731Z,41.99
2023-03-17T06:26:35.897Z,41.99
2023-03-17T06:27:21.205Z,41.99
2023-03-17T06:28:06.412Z,41.99
2023-03-17T06:28:51.050Z,41.99
2023-03-17T06:29:36.016Z,41.99
2023-03-17T06:30:21.721Z,41.99
2023-03-17T06:31:07.351Z,41.99
2023-03-17T06:31:51.757Z,41.99
2023-03-17T06:32:36.147Z,41.99
2023-03-17T06:33:21.293Z,41.99
2023-03-17T06:34:06.448Z,41.99
2023-03-17T06:34:51.405Z,41.99
2023-03-17T06:35:36.497Z,41.99
2023-03-17T06:36:21.743Z,41.99
2023-03-17T06:37:06.424Z,41.99
2023-03-17T06:37:51.447Z,41.99
2023-03-17T06:38:36.947Z,41.99
2023-03-17T06:39:22.090Z,41.99
2023-03-17T06:40:07.079Z,41.99
2023-03-17T06:40:52.198Z,41.99
2023-03-17T06:41:37.030Z,41.99
2023-03-17T06:42:22.596Z,41.99
2023-03-17T06:43:07.155Z,41.99
2023-03-17T06:43:52.218Z,41.99
2023-03-17T06:44:37.990Z,41.99
2023-03-17T06:45:23.606Z,41.99
2023-03-17T06:46:07.279Z,41.99
2023-03-17T06:46:53.198Z,41.99
2023-03-17T06:47:38.115Z,41.99
2023-03-17T06:48:22.701Z,41.99
2023-03-17T06:49:07.788Z,41.99
2023-03-17T06:49:52.995Z,41.99
2023-03-17T06:50:38.065Z,41.99
2023-03-17T06:51:23.436Z,41.99
2023-03-17T06:52:08.053Z,41.99
2023-03-17T06:52:52.750Z,41.99
2023-03-17T06:53:38.113Z,41.99
2023-03-17T06:54:23.105Z,41.99
2023-03-17T06:55:08.331Z,41.99
2023-03-17T06:55:53.802Z,41.99
2023-03-17T06:56:38.922Z,41.99
2023-03-17T06:57:23.396Z,41.99
2023-03-17T06:58:08.356Z,41.99
2023-03-17T06:58:53.762Z,41.99
2023-03-17T06:59:38.607Z,41.99
2023-03-17T07:00:24.255Z,41.99
2023-03-17T07:01:09.417Z,41.99
2023-03-17T07:01:53.881Z,41.99
2023-03-17T07:02:39.402Z,41.99
2023-03-17T07:03:23.852Z,41.99
2023-03-17T07:04:09.404Z,41.99
2023-03-17T07:04:54.573Z,41.99
2023-03-17T07:05:39.244Z,41.99
2023-03-17T07:06:24.497Z,41.99
2023-03-17T07:07:09.281Z,41.99
2023-03-17T07:07:54.505Z,41.99
2023-03-17T07:08:39.554Z,41.99
2023-03-17T07:09:24.642Z,41.99
2023-03-17T07:10:09.891Z,41.99
2023-03-17T07:10:54.517Z,41.99
2023-03-17T07:11:39.617Z,41.99
2023-03-17T07:12:25.092Z,41.99
2023-03-17T07:13:09.864Z,41.99
2023-03-17T07:13:54.961Z,41.99
2023-03-17T07:14:39.921Z,41.99
2023-03-17T07:15:26.058Z,41.99
2023-03-17T07:16:10.162Z,41.99
2023-03-17T07:16:55.407Z,41.99
2023-03-17T07:17:40.286Z,41.99
2023-03-17T07:18:26.062Z,41.99
2023-03-17T07:19:10.991Z,41.99
2023-03-17T07:19:55.581Z,41.99
2023-03-17T07:20:40.261Z,41.99
2023-03-17T07:21:25.572Z,41.99
2023-03-17T07:22:10.280Z,41.99
2023-03-17T07:22:55.360Z,41.99
2023-03-17T07:23:40.553Z,41.99
2023-03-17T07:24:25.938Z,41.99
2023-03-17T07:25:11.238Z,41.99
2023-03-17T07:25:59.629Z,41.99
2023-03-17T07:26:40.507Z,41.99
2023-03-17T07:27:26.012Z,41.99
2023-03-17T07:28:11.206Z,41.99
2023-03-17T07:28:55.807Z,41.99
2023-03-17T07:29:40.868Z,41.99
2023-03-17T07:30:27.214Z,41.99
2023-03-17T07:31:11.371Z,41.99
2023-03-17T07:31:56.226Z,41.99
2023-03-17T07:32:41.128Z,41.99
2023-03-17T07:33:26.974Z,41.99
2023-03-17T07:34:11.349Z,41.99
2023-03-17T07:34:56.853Z,41.99
2023-03-17T07:35:41.286Z,41.99
2023-03-17T07:36:26.478Z,41.99
2023-03-17T07:37:11.420Z,41.99
2023-03-17T07:37:56.737Z,41.99
2023-03-17T07:38:41.328Z,41.99
2023-03-17T07:39:26.939Z,41.99
2023-03-17T07:40:11.964Z,41.99
2023-03-17T07:40:56.728Z,41.99
2023-03-17T07:41:41.663Z,41.99
2023-03-17T07:42:26.917Z,41.99
2023-03-17T07:43:15.834Z,41.99
2023-03-17T07:43:56.936Z,41.99
2023-03-17T07:44:41.782Z,41.99
2023-03-17T07:45:27.158Z,41.99
2023-03-17T07:46:12.359Z,41.99
2023-03-17T07:47:01.240Z,41.99
2023-03-17T07:47:42.190Z,41.99
2023-03-17T07:48:27.096Z,41.99
2023-03-17T07:49:12.626Z,41.99
2023-03-17T07:49:58.631Z,41.99
2023-03-17T07:50:43.361Z,41.99
2023-03-17T07:51:29.138Z,41.99
2023-03-17T07:52:13.502Z,41.99
2023-03-17T07:52:58.796Z,41.99
2023-03-17T07:53:43.076Z,41.99
2023-03-17T07:54:28.475Z,41.99
2023-03-17T07:55:12.805Z,41.99
2023-03-17T07:55:57.815Z,41.99
2023-03-17T07:56:42.732Z,40.99
2023-03-17T07:57:28.286Z,40.99
2023-03-17T07:58:15.085Z,40.99
2023-03-17T07:58:57.667Z,40.99
2023-03-17T07:59:42.771Z,40.99
2023-03-17T08:00:28.345Z,40.99
2023-03-17T08:01:13.232Z,40.99
2023-03-17T08:01:58.780Z,40.99
2023-03-17T08:02:43.386Z,40.99
2023-03-17T08:03:28.485Z,40.99
2023-03-17T08:04:13.247Z,40.99
2023-03-17T08:04:58.370Z,40.99
2023-03-17T08:05:43.434Z,40.99
2023-03-17T08:06:28.586Z,40.99
2023-03-17T08:07:13.966Z,40.99
2023-03-17T08:08:02.683Z,40.99
2023-03-17T08:08:44.124Z,40.99
2023-03-17T08:09:33.218Z,40.99
2023-03-17T08:10:16.048Z,40.99
2023-03-17T08:11:02.997Z,40.99
2023-03-17T08:11:44.034Z,40.99
2023-03-17T08:12:29.135Z,40.99
2023-03-17T08:13:18.266Z,40.99
2023-03-17T08:13:59.125Z,40.99
2023-03-17T08:14:44.341Z,40.99
2023-03-17T08:15:29.407Z,40.99
2023-03-17T08:16:14.072Z,40.99
2023-03-17T08:16:59.249Z,40.99
2023-03-17T08:17:44.462Z,40.99
2023-03-17T08:18:29.326Z,40.99
2023-03-17T08:19:18.293Z,40.99
2023-03-17T08:19:59.271Z,40.99
2023-03-17T08:20:44.520Z,40.99
2023-03-17T08:21:29.596Z,40.99
2023-03-17T08:22:14.860Z,40.99
2023-03-17T08:23:04.077Z,40.99
2023-03-17T08:23:44.688Z,40.99
2023-03-17T08:24:29.740Z,40.99
2023-03-17T08:25:14.693Z,40.99
2023-03-17T08:25:59.747Z,40.99
2023-03-17T08:26:44.736Z,40.99
2023-03-17T08:27:31.436Z,40.99
2023-03-17T08:28:15.080Z,40.99
2023-03-17T08:29:00.106Z,40.99
2023-03-17T08:29:45.232Z,40.99
2023-03-17T08:30:33.792Z,40.99
2023-03-17T08:31:15.236Z,40.99
2023-03-17T08:32:01.645Z,40.99
2023-03-17T08:32:46.893Z,40.99
2023-03-17T08:33:33.579Z,40.99
2023-03-17T08:34:17.925Z,40.99
2023-03-17T08:35:00.339Z,40.99
2023-03-17T08:35:48.130Z,40.99
2023-03-17T08:36:34.636Z,40.99
2023-03-17T08:37:15.772Z,40.99
2023-03-17T08:38:00.755Z,40.99
2023-03-17T08:38:46.204Z,40.99
2023-03-17T08:39:31.221Z,40.99
2023-03-17T08:40:16.041Z,40.99
2023-03-17T08:41:01.595Z,40.99
2023-03-17T08:41:46.443Z,40.99
2023-03-17T08:42:32.467Z,40.99
2023-03-17T08:43:19.950Z,40.99
2023-03-17T08:44:01.226Z,40.99
2023-03-17T08:44:50.360Z,40.99
2023-03-17T08:45:32.004Z,40.99
2023-03-17T08:46:20.534Z,40.99
2023-03-17T08:47:01.475Z,40.99
2023-03-17T08:47:50.693Z,40.99
2023-03-17T08:48:31.678Z,40.99
2023-03-17T08:49:16.962Z,40.99
2023-03-17T08:50:05.648Z,40.99
2023-03-17T08:50:46.732Z,40.99
2023-03-17T08:51:36.036Z,40.99
2023-03-17T08:52:17.049Z,40.99
2023-03-17T08:53:06.077Z,40.99
2023-03-17T08:53:46.744Z,40.99
2023-03-17T08:54:34.784Z,40.99
2023-03-17T08:55:18.736Z,40.99
2023-03-17T08:56:06.189Z,40.99
2023-03-17T08:56:47.220Z,40.99
2023-03-17T08:57:36.240Z,40.99
2023-03-17T08:58:16.976Z,40.99
2023-03-17T08:59:06.171Z,40.99
2023-03-17T08:59:47.800Z,40.99
2023-03-17T09:00:35.475Z,40.99
2023-03-17T09:01:21.512Z,40.99
2023-03-17T09:02:02.869Z,40.99
2023-03-17T09:02:47.847Z,40.99
2023-03-17T09:03:36.665Z,40.99
2023-03-17T09:04:17.764Z,40.99
2023-03-17T09:05:04.014Z,40.99
2023-03-17T09:05:52.159Z,40.99
2023-03-17T09:06:32.813Z,40.99
2023-03-17T09:07:21.754Z,40.99
2023-03-17T09:08:03.105Z,40.99
2023-03-17T09:08:48.275Z,40.99
2023-03-17T09:09:32.848Z,40.99
2023-03-17T09:10:18.946Z,40.99
2023-03-17T09:11:02.801Z,40.99
2023-03-17T09:11:48.155Z,40.99
2023-03-17T09:12:34.312Z,40.99
2023-03-17T09:13:18.462Z,40.99
2023-03-17T09:14:03.666Z,40.99
2023-03-17T09:14:49.311Z,40.99
2023-03-17T09:15:33.449Z,40.99
2023-03-17T09:16:22.536Z,40.99
2023-03-17T09:17:05.446Z,40.99
2023-03-17T09:17:48.680Z,40.99
2023-03-17T09:18:33.809Z,40.99
2023-03-17T09:19:18.981Z,40.99
2023-03-17T09:20:04.039Z,40.99
2023-03-17T09:20:49.471Z,40.99
2023-03-17T09:21:34.268Z,40.99
2023-03-17T09:22:18.878Z,40.99
2023-03-17T09:23:04.019Z,40.99
2023-03-17T09:23:49.112Z,40.99
2023-03-17T09:24:34.671Z,40.99
2023-03-17T09:25:19.775Z,40.99
2023-03-17T09:26:04.311Z,40.99
2023-03-17T09:26:49.555Z,40.99
2023-03-17T09:27:34.628Z,40.99
2023-03-17T09:28:19.552Z,40.99
2023-03-17T09:29:04.746Z,40.99
2023-03-17T09:29:49.567Z,40.99
2023-03-17T09:30:34.603Z,40.99
2023-03-17T09:31:19.673Z,40.99
2023-03-17T09:32:05.069Z,40.99
2023-03-17T09:32:50.244Z,40.99
2023-03-17T09:33:35.458Z,40.99
2023-03-17T09:34:20.064Z,40.99
2023-03-17T09:35:05.327Z,40.99
2023-03-17T09:35:50.435Z,40.99
2023-03-17T09:36:35.789Z,40.99
2023-03-17T09:37:20.375Z,40.99
2023-03-17T09:38:05.488Z,40.99
2023-03-17T09:38:50.121Z,40.99
2023-03-17T09:39:35.495Z,40.99
2023-03-17T09:40:20.945Z,40.99
2023-03-17T09:41:05.548Z,40.99
2023-03-17T09:41:50.449Z,40.99